sensor_id;sensor_type;location;lat;lon;timestamp;P1;durP1;ratioP1;P2;durP2;ratioP2
23121;SDS011;11730;51.248;22.534;2023-12-28T00:02:24;43.10;;;22.50;;
23121;SDS011;11730;51.248;22.534;2023-12-28T00:04:51;42.25;;;21.45;;
23121;SDS011;11730;51.248;22.534;2023-12-28T00:07:18;42.78;;;22.25;;
23121;SDS011;11730;51.248;22.534;2023-12-28T00:09:46;53.55;;;24.08;;
23121;SDS011;11730;51.248;22.534;2023-12-28T00:12:13;47.92;;;22.48;;
23121;SDS011;11730;51.248;22.534;2023-12-28T00:14:41;54.45;;;22.75;;
23121;SDS011;11730;51.248;22.534;2023-12-28T00:17:08;45.25;;;20.70;;
23121;SDS011;11730;51.248;22.534;2023-12-28T00:19:34;48.20;;;22.65;;
23121;SDS011;11730;51.248;22.534;2023-12-28T00:22:02;52.88;;;25.30;;
23121;SDS011;11730;51.248;22.534;2023-12-28T00:24:29;49.35;;;23.38;;
23121;SDS011;11730;51.248;22.534;2023-12-28T00:26:57;56.35;;;22.83;;
23121;SDS011;11730;51.248;22.534;2023-12-28T00:29:24;51.13;;;22.88;;
23121;SDS011;11730;51.248;22.534;2023-12-28T00:31:51;52.63;;;23.92;;
23121;SDS011;11730;51.248;22.534;2023-12-28T00:34:18;53.22;;;23.25;;
23121;SDS011;11730;51.248;22.534;2023-12-28T00:36:45;49.78;;;23.58;;
23121;SDS011;11730;51.248;22.534;2023-12-28T00:39:12;46.53;;;21.33;;
23121;SDS011;11730;51.248;22.534;2023-12-28T00:41:41;42.63;;;21.10;;
23121;SDS011;11730;51.248;22.534;2023-12-28T00:44:08;54.92;;;22.30;;
23121;SDS011;11730;51.248;22.534;2023-12-28T00:46:36;48.85;;;21.70;;
23121;SDS011;11730;51.248;22.534;2023-12-28T00:49:03;46.45;;;21.67;;
23121;SDS011;11730;51.248;22.534;2023-12-28T00:51:30;45.78;;;19.85;;
23121;SDS011;11730;51.248;22.534;2023-12-28T00:53:57;43.67;;;18.33;;
23121;SDS011;11730;51.248;22.534;2023-12-28T00:56:24;41.80;;;19.38;;
23121;SDS011;11730;51.248;22.534;2023-12-28T00:58:51;43.17;;;21.02;;
23121;SDS011;11730;51.248;22.534;2023-12-28T01:01:18;44.85;;;19.08;;
23121;SDS011;11730;51.248;22.534;2023-12-28T01:03:45;33.55;;;16.05;;
23121;SDS011;11730;51.248;22.534;2023-12-28T01:06:12;37.50;;;17.30;;
23121;SDS011;11730;51.248;22.534;2023-12-28T01:08:39;37.28;;;15.90;;
23121;SDS011;11730;51.248;22.534;2023-12-28T01:11:07;38.85;;;16.20;;
23121;SDS011;11730;51.248;22.534;2023-12-28T01:13:34;32.75;;;16.10;;
23121;SDS011;11730;51.248;22.534;2023-12-28T01:16:05;32.13;;;15.25;;
23121;SDS011;11730;51.248;22.534;2023-12-28T01:18:32;39.03;;;14.82;;
23121;SDS011;11730;51.248;22.534;2023-12-28T01:21:00;37.60;;;15.25;;
23121;SDS011;11730;51.248;22.534;2023-12-28T01:23:27;32.13;;;14.75;;
23121;SDS011;11730;51.248;22.534;2023-12-28T01:25:55;24.35;;;10.90;;
23121;SDS011;11730;51.248;22.534;2023-12-28T01:28:22;34.80;;;15.75;;
23121;SDS011;11730;51.248;22.534;2023-12-28T01:30:50;30.20;;;13.43;;
23121;SDS011;11730;51.248;22.534;2023-12-28T01:33:17;22.45;;;10.18;;
23121;SDS011;11730;51.248;22.534;2023-12-28T01:35:44;31.90;;;14.18;;
23121;SDS011;11730;51.248;22.534;2023-12-28T01:38:11;32.88;;;14.55;;
23121;SDS011;11730;51.248;22.534;2023-12-28T01:40:43;23.40;;;12.05;;
23121;SDS011;11730;51.248;22.534;2023-12-28T01:43:11;32.58;;;13.63;;
23121;SDS011;11730;51.248;22.534;2023-12-28T01:45:38;31.70;;;14.13;;
23121;SDS011;11730;51.248;22.534;2023-12-28T01:48:05;27.60;;;13.88;;
23121;SDS011;11730;51.248;22.534;2023-12-28T01:50:33;28.92;;;12.98;;
23121;SDS011;11730;51.248;22.534;2023-12-28T01:53:00;29.98;;;11.68;;
23121;SDS011;11730;51.248;22.534;2023-12-28T01:55:27;28.48;;;12.93;;
23121;SDS011;11730;51.248;22.534;2023-12-28T01:57:56;31.80;;;14.38;;
23121;SDS011;11730;51.248;22.534;2023-12-28T02:00:24;28.83;;;14.65;;
23121;SDS011;11730;51.248;22.534;2023-12-28T02:02:52;30.60;;;14.40;;
23121;SDS011;11730;51.248;22.534;2023-12-28T02:05:19;24.27;;;11.77;;
23121;SDS011;11730;51.248;22.534;2023-12-28T02:07:48;22.17;;;11.45;;
23121;SDS011;11730;51.248;22.534;2023-12-28T02:10:15;26.83;;;12.38;;
23121;SDS011;11730;51.248;22.534;2023-12-28T02:12:42;29.90;;;14.35;;
23121;SDS011;11730;51.248;22.534;2023-12-28T02:15:09;29.90;;;14.65;;
23121;SDS011;11730;51.248;22.534;2023-12-28T02:17:41;24.95;;;11.00;;
23121;SDS011;11730;51.248;22.534;2023-12-28T02:20:15;23.98;;;12.27;;
23121;SDS011;11730;51.248;22.534;2023-12-28T02:22:42;24.10;;;12.80;;
23121;SDS011;11730;51.248;22.534;2023-12-28T02:25:10;23.10;;;13.40;;
23121;SDS011;11730;51.248;22.534;2023-12-28T02:27:42;30.98;;;14.60;;
23121;SDS011;11730;51.248;22.534;2023-12-28T02:30:17;27.80;;;14.33;;
23121;SDS011;11730;51.248;22.534;2023-12-28T02:35:44;31.70;;;14.55;;
23121;SDS011;11730;51.248;22.534;2023-12-28T02:38:17;32.35;;;14.68;;
23121;SDS011;11730;51.248;22.534;2023-12-28T02:40:45;26.52;;;14.55;;
23121;SDS011;11730;51.248;22.534;2023-12-28T02:43:13;30.27;;;14.90;;
23121;SDS011;11730;51.248;22.534;2023-12-28T02:45:41;37.67;;;15.60;;
23121;SDS011;11730;51.248;22.534;2023-12-28T02:48:08;38.65;;;16.38;;
23121;SDS011;11730;51.248;22.534;2023-12-28T02:50:36;35.03;;;16.30;;
23121;SDS011;11730;51.248;22.534;2023-12-28T02:53:03;32.92;;;17.05;;
23121;SDS011;11730;51.248;22.534;2023-12-28T02:55:30;28.52;;;15.10;;
23121;SDS011;11730;51.248;22.534;2023-12-28T02:57:57;43.25;;;17.05;;
23121;SDS011;11730;51.248;22.534;2023-12-28T03:00:27;33.88;;;16.17;;
23121;SDS011;11730;51.248;22.534;2023-12-28T03:02:55;31.88;;;15.70;;
23121;SDS011;11730;51.248;22.534;2023-12-28T03:05:23;28.45;;;14.18;;
23121;SDS011;11730;51.248;22.534;2023-12-28T03:07:50;40.42;;;16.42;;
23121;SDS011;11730;51.248;22.534;2023-12-28T03:10:17;34.28;;;15.43;;
23121;SDS011;11730;51.248;22.534;2023-12-28T03:12:44;30.85;;;15.65;;
23121;SDS011;11730;51.248;22.534;2023-12-28T03:15:12;32.30;;;15.20;;
23121;SDS011;11730;51.248;22.534;2023-12-28T03:17:39;32.50;;;16.08;;
23121;SDS011;11730;51.248;22.534;2023-12-28T03:20:07;32.13;;;14.15;;
23121;SDS011;11730;51.248;22.534;2023-12-28T03:22:35;32.60;;;15.80;;
23121;SDS011;11730;51.248;22.534;2023-12-28T03:25:02;18.83;;;10.30;;
23121;SDS011;11730;51.248;22.534;2023-12-28T03:27:30;28.85;;;13.95;;
23121;SDS011;11730;51.248;22.534;2023-12-28T03:29:58;27.33;;;12.43;;
23121;SDS011;11730;51.248;22.534;2023-12-28T03:32:25;31.75;;;15.27;;
23121;SDS011;11730;51.248;22.534;2023-12-28T03:34:52;31.20;;;14.27;;
23121;SDS011;11730;51.248;22.534;2023-12-28T03:37:19;31.63;;;15.60;;
23121;SDS011;11730;51.248;22.534;2023-12-28T03:39:46;21.98;;;13.75;;
23121;SDS011;11730;51.248;22.534;2023-12-28T03:42:14;37.05;;;16.40;;
23121;SDS011;11730;51.248;22.534;2023-12-28T03:44:41;35.35;;;13.57;;
23121;SDS011;11730;51.248;22.534;2023-12-28T03:47:08;25.38;;;12.25;;
23121;SDS011;11730;51.248;22.534;2023-12-28T03:49:35;29.15;;;14.77;;
23121;SDS011;11730;51.248;22.534;2023-12-28T03:52:02;31.33;;;14.27;;
23121;SDS011;11730;51.248;22.534;2023-12-28T03:54:30;27.80;;;13.13;;
23121;SDS011;11730;51.248;22.534;2023-12-28T03:56:57;29.92;;;15.38;;
23121;SDS011;11730;51.248;22.534;2023-12-28T03:59:24;28.17;;;13.20;;
23121;SDS011;11730;51.248;22.534;2023-12-28T04:01:51;23.95;;;11.38;;
23121;SDS011;11730;51.248;22.534;2023-12-28T04:04:18;25.92;;;12.70;;
23121;SDS011;11730;51.248;22.534;2023-12-28T04:06:45;29.85;;;13.60;;
23121;SDS011;11730;51.248;22.534;2023-12-28T04:09:12;29.50;;;13.38;;
23121;SDS011;11730;51.248;22.534;2023-12-28T04:11:40;27.40;;;14.30;;
23121;SDS011;11730;51.248;22.534;2023-12-28T04:14:08;25.30;;;12.52;;
23121;SDS011;11730;51.248;22.534;2023-12-28T04:16:35;13.00;;;8.88;;
23121;SDS011;11730;51.248;22.534;2023-12-28T04:19:02;28.65;;;12.85;;
23121;SDS011;11730;51.248;22.534;2023-12-28T04:21:30;23.95;;;13.40;;
23121;SDS011;11730;51.248;22.534;2023-12-28T04:23:57;21.50;;;11.93;;
23121;SDS011;11730;51.248;22.534;2023-12-28T04:26:25;22.08;;;12.52;;
23121;SDS011;11730;51.248;22.534;2023-12-28T04:28:52;18.25;;;9.18;;
23121;SDS011;11730;51.248;22.534;2023-12-28T04:31:19;27.38;;;11.68;;
23121;SDS011;11730;51.248;22.534;2023-12-28T04:33:46;21.33;;;12.13;;
23121;SDS011;11730;51.248;22.534;2023-12-28T04:36:14;25.33;;;12.90;;
23121;SDS011;11730;51.248;22.534;2023-12-28T04:38:41;25.67;;;10.70;;
23121;SDS011;11730;51.248;22.534;2023-12-28T04:41:09;23.83;;;11.85;;
23121;SDS011;11730;51.248;22.534;2023-12-28T04:43:36;29.60;;;14.43;;
23121;SDS011;11730;51.248;22.534;2023-12-28T04:46:03;25.98;;;13.32;;
23121;SDS011;11730;51.248;22.534;2023-12-28T04:48:31;15.25;;;9.88;;
23121;SDS011;11730;51.248;22.534;2023-12-28T04:51:01;22.80;;;12.48;;
23121;SDS011;11730;51.248;22.534;2023-12-28T04:53:29;25.33;;;13.13;;
23121;SDS011;11730;51.248;22.534;2023-12-28T04:55:59;22.90;;;11.82;;
23121;SDS011;11730;51.248;22.534;2023-12-28T04:58:26;27.52;;;11.55;;
23121;SDS011;11730;51.248;22.534;2023-12-28T05:00:53;25.52;;;12.55;;
23121;SDS011;11730;51.248;22.534;2023-12-28T05:03:21;18.48;;;9.95;;
23121;SDS011;11730;51.248;22.534;2023-12-28T05:05:48;22.90;;;11.02;;
23121;SDS011;11730;51.248;22.534;2023-12-28T05:08:15;24.88;;;13.38;;
23121;SDS011;11730;51.248;22.534;2023-12-28T05:10:42;25.30;;;11.48;;
23121;SDS011;11730;51.248;22.534;2023-12-28T05:13:09;25.85;;;13.27;;
23121;SDS011;11730;51.248;22.534;2023-12-28T05:15:36;14.98;;;9.27;;
23121;SDS011;11730;51.248;22.534;2023-12-28T05:18:03;13.63;;;6.80;;
23121;SDS011;11730;51.248;22.534;2023-12-28T05:20:33;26.35;;;13.50;;
23121;SDS011;11730;51.248;22.534;2023-12-28T05:23:00;16.38;;;7.63;;
23121;SDS011;11730;51.248;22.534;2023-12-28T05:25:27;20.25;;;9.48;;
23121;SDS011;11730;51.248;22.534;2023-12-28T05:27:54;17.15;;;8.80;;
23121;SDS011;11730;51.248;22.534;2023-12-28T05:30:22;22.77;;;12.77;;
23121;SDS011;11730;51.248;22.534;2023-12-28T05:32:49;17.70;;;9.98;;
23121;SDS011;11730;51.248;22.534;2023-12-28T05:35:17;19.10;;;8.38;;
23121;SDS011;11730;51.248;22.534;2023-12-28T05:37:44;20.00;;;8.30;;
23121;SDS011;11730;51.248;22.534;2023-12-28T05:40:11;19.38;;;11.32;;
23121;SDS011;11730;51.248;22.534;2023-12-28T05:42:38;18.70;;;10.02;;
23121;SDS011;11730;51.248;22.534;2023-12-28T05:45:06;30.98;;;13.75;;
23121;SDS011;11730;51.248;22.534;2023-12-28T05:47:33;19.27;;;10.80;;
23121;SDS011;11730;51.248;22.534;2023-12-28T05:50:00;15.50;;;9.20;;
23121;SDS011;11730;51.248;22.534;2023-12-28T05:52:29;10.55;;;7.53;;
23121;SDS011;11730;51.248;22.534;2023-12-28T05:54:56;21.70;;;11.10;;
23121;SDS011;11730;51.248;22.534;2023-12-28T05:57:24;20.65;;;10.40;;
23121;SDS011;11730;51.248;22.534;2023-12-28T05:59:57;15.30;;;8.57;;
23121;SDS011;11730;51.248;22.534;2023-12-28T06:02:24;15.05;;;7.82;;
23121;SDS011;11730;51.248;22.534;2023-12-28T06:04:51;18.58;;;10.73;;
23121;SDS011;11730;51.248;22.534;2023-12-28T06:07:19;20.23;;;10.43;;
23121;SDS011;11730;51.248;22.534;2023-12-28T06:09:46;18.13;;;10.65;;
23121;SDS011;11730;51.248;22.534;2023-12-28T06:12:13;19.25;;;10.48;;
23121;SDS011;11730;51.248;22.534;2023-12-28T06:14:41;24.38;;;10.10;;
23121;SDS011;11730;51.248;22.534;2023-12-28T06:17:08;21.38;;;9.02;;
23121;SDS011;11730;51.248;22.534;2023-12-28T06:19:35;20.45;;;12.57;;
23121;SDS011;11730;51.248;22.534;2023-12-28T06:22:02;11.00;;;7.25;;
23121;SDS011;11730;51.248;22.534;2023-12-28T06:24:29;13.48;;;7.68;;
23121;SDS011;11730;51.248;22.534;2023-12-28T06:26:56;17.55;;;10.70;;
23121;SDS011;11730;51.248;22.534;2023-12-28T06:29:24;19.05;;;10.02;;
23121;SDS011;11730;51.248;22.534;2023-12-28T06:31:51;17.42;;;8.80;;
23121;SDS011;11730;51.248;22.534;2023-12-28T06:34:18;18.25;;;10.48;;
23121;SDS011;11730;51.248;22.534;2023-12-28T06:36:45;18.52;;;10.75;;
23121;SDS011;11730;51.248;22.534;2023-12-28T06:39:13;22.55;;;11.40;;
23121;SDS011;11730;51.248;22.534;2023-12-28T06:41:40;18.20;;;10.77;;
23121;SDS011;11730;51.248;22.534;2023-12-28T06:44:07;19.35;;;10.23;;
23121;SDS011;11730;51.248;22.534;2023-12-28T06:46:35;19.42;;;11.23;;
23121;SDS011;11730;51.248;22.534;2023-12-28T06:49:02;17.48;;;9.82;;
23121;SDS011;11730;51.248;22.534;2023-12-28T06:51:31;19.23;;;10.30;;
23121;SDS011;11730;51.248;22.534;2023-12-28T06:53:59;18.10;;;10.98;;
23121;SDS011;11730;51.248;22.534;2023-12-28T06:56:26;16.13;;;9.10;;
23121;SDS011;11730;51.248;22.534;2023-12-28T06:58:53;15.57;;;9.30;;
23121;SDS011;11730;51.248;22.534;2023-12-28T07:01:20;12.40;;;7.55;;
23121;SDS011;11730;51.248;22.534;2023-12-28T07:03:48;9.45;;;6.72;;
23121;SDS011;11730;51.248;22.534;2023-12-28T07:06:15;23.00;;;11.65;;
23121;SDS011;11730;51.248;22.534;2023-12-28T07:08:42;17.05;;;10.05;;
23121;SDS011;11730;51.248;22.534;2023-12-28T07:11:09;13.10;;;8.38;;
23121;SDS011;11730;51.248;22.534;2023-12-28T07:13:37;20.67;;;10.82;;
23121;SDS011;11730;51.248;22.534;2023-12-28T07:16:04;19.25;;;11.20;;
23121;SDS011;11730;51.248;22.534;2023-12-28T07:18:34;21.50;;;9.63;;
23121;SDS011;11730;51.248;22.534;2023-12-28T07:21:02;16.25;;;9.70;;
23121;SDS011;11730;51.248;22.534;2023-12-28T07:23:29;15.98;;;9.48;;
23121;SDS011;11730;51.248;22.534;2023-12-28T07:25:56;17.33;;;9.90;;
23121;SDS011;11730;51.248;22.534;2023-12-28T07:28:23;9.93;;;5.90;;
23121;SDS011;11730;51.248;22.534;2023-12-28T07:30:50;17.52;;;9.20;;
23121;SDS011;11730;51.248;22.534;2023-12-28T07:33:18;16.42;;;8.02;;
23121;SDS011;11730;51.248;22.534;2023-12-28T07:35:45;17.33;;;9.80;;
23121;SDS011;11730;51.248;22.534;2023-12-28T07:38:12;10.00;;;6.20;;
23121;SDS011;11730;51.248;22.534;2023-12-28T07:40:40;16.55;;;8.85;;
23121;SDS011;11730;51.248;22.534;2023-12-28T07:43:06;13.43;;;8.05;;
23121;SDS011;11730;51.248;22.534;2023-12-28T07:45:33;15.82;;;9.45;;
23121;SDS011;11730;51.248;22.534;2023-12-28T07:48:05;14.25;;;9.38;;
23121;SDS011;11730;51.248;22.534;2023-12-28T07:50:32;15.45;;;9.30;;
23121;SDS011;11730;51.248;22.534;2023-12-28T07:53:00;14.77;;;8.85;;
23121;SDS011;11730;51.248;22.534;2023-12-28T07:55:27;14.57;;;9.40;;
23121;SDS011;11730;51.248;22.534;2023-12-28T07:57:54;11.63;;;7.70;;
23121;SDS011;11730;51.248;22.534;2023-12-28T08:00:22;16.98;;;9.02;;
23121;SDS011;11730;51.248;22.534;2023-12-28T08:02:49;15.45;;;9.02;;
23121;SDS011;11730;51.248;22.534;2023-12-28T08:05:16;13.35;;;8.25;;
23121;SDS011;11730;51.248;22.534;2023-12-28T08:07:43;12.73;;;7.95;;
23121;SDS011;11730;51.248;22.534;2023-12-28T08:10:11;10.50;;;6.13;;
23121;SDS011;11730;51.248;22.534;2023-12-28T08:12:38;12.02;;;8.35;;
23121;SDS011;11730;51.248;22.534;2023-12-28T08:15:05;13.50;;;8.00;;
23121;SDS011;11730;51.248;22.534;2023-12-28T08:17:33;14.73;;;9.15;;
23121;SDS011;11730;51.248;22.534;2023-12-28T08:20:00;15.43;;;8.32;;
23121;SDS011;11730;51.248;22.534;2023-12-28T08:22:28;11.40;;;7.47;;
23121;SDS011;11730;51.248;22.534;2023-12-28T08:24:55;14.02;;;8.30;;
23121;SDS011;11730;51.248;22.534;2023-12-28T08:27:23;16.40;;;9.18;;
23121;SDS011;11730;51.248;22.534;2023-12-28T08:29:51;13.90;;;8.25;;
23121;SDS011;11730;51.248;22.534;2023-12-28T08:32:18;13.82;;;7.90;;
23121;SDS011;11730;51.248;22.534;2023-12-28T08:34:46;14.88;;;7.45;;
23121;SDS011;11730;51.248;22.534;2023-12-28T08:37:14;13.98;;;8.85;;
23121;SDS011;11730;51.248;22.534;2023-12-28T08:39:41;11.05;;;6.85;;
23121;SDS011;11730;51.248;22.534;2023-12-28T08:42:08;14.43;;;8.43;;
23121;SDS011;11730;51.248;22.534;2023-12-28T08:44:36;14.05;;;7.72;;
23121;SDS011;11730;51.248;22.534;2023-12-28T08:47:04;13.40;;;7.88;;
23121;SDS011;11730;51.248;22.534;2023-12-28T08:49:31;11.45;;;6.70;;
23121;SDS011;11730;51.248;22.534;2023-12-28T08:51:59;14.82;;;8.35;;
23121;SDS011;11730;51.248;22.534;2023-12-28T08:54:27;10.73;;;6.22;;
23121;SDS011;11730;51.248;22.534;2023-12-28T08:56:54;21.70;;;8.63;;
23121;SDS011;11730;51.248;22.534;2023-12-28T08:59:25;17.25;;;8.32;;
23121;SDS011;11730;51.248;22.534;2023-12-28T09:01:55;13.15;;;8.18;;
23121;SDS011;11730;51.248;22.534;2023-12-28T09:04:22;16.73;;;7.43;;
23121;SDS011;11730;51.248;22.534;2023-12-28T09:06:49;12.50;;;7.10;;
23121;SDS011;11730;51.248;22.534;2023-12-28T09:09:17;11.88;;;6.57;;
23121;SDS011;11730;51.248;22.534;2023-12-28T09:11:44;10.88;;;6.75;;
23121;SDS011;11730;51.248;22.534;2023-12-28T09:14:11;11.13;;;7.13;;
23121;SDS011;11730;51.248;22.534;2023-12-28T09:16:38;14.77;;;8.73;;
23121;SDS011;11730;51.248;22.534;2023-12-28T09:19:08;12.00;;;7.00;;
23121;SDS011;11730;51.248;22.534;2023-12-28T09:21:36;13.23;;;7.68;;
23121;SDS011;11730;51.248;22.534;2023-12-28T09:24:03;12.40;;;6.55;;
23121;SDS011;11730;51.248;22.534;2023-12-28T09:26:29;10.88;;;5.68;;
23121;SDS011;11730;51.248;22.534;2023-12-28T09:28:58;12.07;;;6.72;;
23121;SDS011;11730;51.248;22.534;2023-12-28T09:31:26;10.60;;;5.88;;
23121;SDS011;11730;51.248;22.534;2023-12-28T09:33:53;15.00;;;7.28;;
23121;SDS011;11730;51.248;22.534;2023-12-28T09:36:20;13.82;;;6.88;;
23121;SDS011;11730;51.248;22.534;2023-12-28T09:38:47;13.88;;;6.93;;
23121;SDS011;11730;51.248;22.534;2023-12-28T09:41:15;12.60;;;7.97;;
23121;SDS011;11730;51.248;22.534;2023-12-28T09:44:07;11.68;;;7.70;;
23121;SDS011;11730;51.248;22.534;2023-12-28T09:46:40;11.05;;;7.57;;
23121;SDS011;11730;51.248;22.534;2023-12-28T09:49:08;13.68;;;7.57;;
23121;SDS011;11730;51.248;22.534;2023-12-28T09:51:37;13.10;;;7.72;;
23121;SDS011;11730;51.248;22.534;2023-12-28T09:54:04;12.32;;;7.70;;
23121;SDS011;11730;51.248;22.534;2023-12-28T09:56:31;10.30;;;7.05;;
23121;SDS011;11730;51.248;22.534;2023-12-28T09:58:59;12.70;;;7.95;;
23121;SDS011;11730;51.248;22.534;2023-12-28T10:01:26;11.00;;;6.88;;
23121;SDS011;11730;51.248;22.534;2023-12-28T10:03:54;13.13;;;6.90;;
23121;SDS011;11730;51.248;22.534;2023-12-28T10:06:21;12.85;;;7.40;;
23121;SDS011;11730;51.248;22.534;2023-12-28T10:08:48;10.73;;;6.50;;
23121;SDS011;11730;51.248;22.534;2023-12-28T10:11:17;9.40;;;6.38;;
23121;SDS011;11730;51.248;22.534;2023-12-28T10:13:45;14.20;;;7.47;;
23121;SDS011;11730;51.248;22.534;2023-12-28T10:16:12;8.13;;;6.20;;
23121;SDS011;11730;51.248;22.534;2023-12-28T10:18:42;11.48;;;6.88;;
23121;SDS011;11730;51.248;22.534;2023-12-28T10:21:10;13.35;;;6.32;;
23121;SDS011;11730;51.248;22.534;2023-12-28T10:23:38;10.50;;;6.93;;
23121;SDS011;11730;51.248;22.534;2023-12-28T10:26:05;10.75;;;5.60;;
23121;SDS011;11730;51.248;22.534;2023-12-28T10:28:34;12.70;;;7.40;;
23121;SDS011;11730;51.248;22.534;2023-12-28T10:31:02;10.07;;;5.70;;
23121;SDS011;11730;51.248;22.534;2023-12-28T10:33:36;14.32;;;6.93;;
23121;SDS011;11730;51.248;22.534;2023-12-28T10:36:08;9.02;;;6.68;;
23121;SDS011;11730;51.248;22.534;2023-12-28T10:38:37;11.73;;;6.93;;
23121;SDS011;11730;51.248;22.534;2023-12-28T10:41:08;9.77;;;5.65;;
23121;SDS011;11730;51.248;22.534;2023-12-28T10:43:37;11.00;;;6.88;;
23121;SDS011;11730;51.248;22.534;2023-12-28T10:46:21;12.00;;;7.20;;
23121;SDS011;11730;51.248;22.534;2023-12-28T10:48:57;11.60;;;6.88;;
23121;SDS011;11730;51.248;22.534;2023-12-28T10:51:26;13.20;;;7.88;;
23121;SDS011;11730;51.248;22.534;2023-12-28T10:53:59;11.25;;;7.22;;
23121;SDS011;11730;51.248;22.534;2023-12-28T10:56:42;10.93;;;7.38;;
23121;SDS011;11730;51.248;22.534;2023-12-28T11:01:49;9.77;;;6.82;;
23121;SDS011;11730;51.248;22.534;2023-12-28T11:06:58;14.23;;;7.53;;
23121;SDS011;11730;51.248;22.534;2023-12-28T11:09:30;11.70;;;7.47;;
23121;SDS011;11730;51.248;22.534;2023-12-28T11:11:57;9.35;;;6.13;;
23121;SDS011;11730;51.248;22.534;2023-12-28T11:14:28;12.25;;;7.55;;
23121;SDS011;11730;51.248;22.534;2023-12-28T11:16:55;12.68;;;7.68;;
23121;SDS011;11730;51.248;22.534;2023-12-28T11:19:28;14.30;;;8.35;;
23121;SDS011;11730;51.248;22.534;2023-12-28T11:21:56;14.85;;;9.30;;
23121;SDS011;11730;51.248;22.534;2023-12-28T11:24:27;14.07;;;8.23;;
23121;SDS011;11730;51.248;22.534;2023-12-28T11:26:55;11.45;;;7.95;;
23121;SDS011;11730;51.248;22.534;2023-12-28T11:29:23;15.05;;;7.57;;
23121;SDS011;11730;51.248;22.534;2023-12-28T11:31:54;13.35;;;9.13;;
23121;SDS011;11730;51.248;22.534;2023-12-28T11:34:29;13.20;;;7.82;;
23121;SDS011;11730;51.248;22.534;2023-12-28T11:37:04;16.48;;;8.77;;
23121;SDS011;11730;51.248;22.534;2023-12-28T11:39:36;13.02;;;7.93;;
23121;SDS011;11730;51.248;22.534;2023-12-28T11:42:05;16.92;;;8.50;;
23121;SDS011;11730;51.248;22.534;2023-12-28T11:44:38;15.18;;;8.98;;
23121;SDS011;11730;51.248;22.534;2023-12-28T11:47:15;20.08;;;10.18;;
23121;SDS011;11730;51.248;22.534;2023-12-28T11:49:53;15.50;;;9.18;;
23121;SDS011;11730;51.248;22.534;2023-12-28T11:52:22;15.73;;;8.95;;
23121;SDS011;11730;51.248;22.534;2023-12-28T11:54:51;16.13;;;9.32;;
23121;SDS011;11730;51.248;22.534;2023-12-28T11:57:18;13.00;;;7.72;;
23121;SDS011;11730;51.248;22.534;2023-12-28T11:59:45;15.80;;;9.40;;
23121;SDS011;11730;51.248;22.534;2023-12-28T12:02:14;18.30;;;10.00;;
23121;SDS011;11730;51.248;22.534;2023-12-28T12:04:41;17.65;;;8.90;;
23121;SDS011;11730;51.248;22.534;2023-12-28T12:07:09;18.13;;;9.27;;
23121;SDS011;11730;51.248;22.534;2023-12-28T12:09:36;18.73;;;9.45;;
23121;SDS011;11730;51.248;22.534;2023-12-28T12:12:04;15.05;;;9.13;;
23121;SDS011;11730;51.248;22.534;2023-12-28T12:14:32;13.82;;;8.48;;
23121;SDS011;11730;51.248;22.534;2023-12-28T12:17:01;19.02;;;9.13;;
23121;SDS011;11730;51.248;22.534;2023-12-28T12:19:28;15.50;;;9.30;;
23121;SDS011;11730;51.248;22.534;2023-12-28T12:21:56;16.48;;;9.40;;
23121;SDS011;11730;51.248;22.534;2023-12-28T12:24:23;17.92;;;10.32;;
23121;SDS011;11730;51.248;22.534;2023-12-28T12:26:51;13.77;;;9.25;;
23121;SDS011;11730;51.248;22.534;2023-12-28T12:29:18;13.75;;;8.75;;
23121;SDS011;11730;51.248;22.534;2023-12-28T12:31:53;16.63;;;9.25;;
23121;SDS011;11730;51.248;22.534;2023-12-28T12:34:21;17.58;;;10.00;;
23121;SDS011;11730;51.248;22.534;2023-12-28T12:36:48;16.73;;;9.57;;
23121;SDS011;11730;51.248;22.534;2023-12-28T12:39:18;13.20;;;8.23;;
23121;SDS011;11730;51.248;22.534;2023-12-28T12:41:46;18.70;;;9.63;;
23121;SDS011;11730;51.248;22.534;2023-12-28T12:44:13;15.88;;;9.18;;
23121;SDS011;11730;51.248;22.534;2023-12-28T12:46:43;17.42;;;9.60;;
23121;SDS011;11730;51.248;22.534;2023-12-28T12:49:10;16.10;;;9.85;;
23121;SDS011;11730;51.248;22.534;2023-12-28T12:51:38;19.50;;;9.40;;
23121;SDS011;11730;51.248;22.534;2023-12-28T12:54:07;16.40;;;9.50;;
23121;SDS011;11730;51.248;22.534;2023-12-28T12:56:35;17.45;;;9.57;;
23121;SDS011;11730;51.248;22.534;2023-12-28T12:59:02;16.02;;;10.13;;
23121;SDS011;11730;51.248;22.534;2023-12-28T13:01:29;17.45;;;9.93;;
23121;SDS011;11730;51.248;22.534;2023-12-28T13:03:57;19.02;;;9.07;;
23121;SDS011;11730;51.248;22.534;2023-12-28T13:06:24;19.40;;;9.80;;
23121;SDS011;11730;51.248;22.534;2023-12-28T13:08:51;18.95;;;8.40;;
23121;SDS011;11730;51.248;22.534;2023-12-28T13:11:18;16.27;;;9.70;;
23121;SDS011;11730;51.248;22.534;2023-12-28T13:13:49;16.95;;;9.93;;
23121;SDS011;11730;51.248;22.534;2023-12-28T13:16:17;20.60;;;9.75;;
23121;SDS011;11730;51.248;22.534;2023-12-28T13:18:44;18.75;;;9.57;;
23121;SDS011;11730;51.248;22.534;2023-12-28T13:21:11;15.98;;;8.52;;
23121;SDS011;11730;51.248;22.534;2023-12-28T13:23:39;19.17;;;8.98;;
23121;SDS011;11730;51.248;22.534;2023-12-28T13:26:06;14.48;;;8.77;;
23121;SDS011;11730;51.248;22.534;2023-12-28T13:28:34;17.23;;;9.48;;
23121;SDS011;11730;51.248;22.534;2023-12-28T13:31:00;17.67;;;9.30;;
23121;SDS011;11730;51.248;22.534;2023-12-28T13:33:28;15.98;;;8.85;;
23121;SDS011;11730;51.248;22.534;2023-12-28T13:35:56;16.33;;;8.88;;
23121;SDS011;11730;51.248;22.534;2023-12-28T13:38:24;10.50;;;6.18;;
23121;SDS011;11730;51.248;22.534;2023-12-28T13:40:51;15.20;;;9.30;;
23121;SDS011;11730;51.248;22.534;2023-12-28T13:43:18;16.88;;;8.68;;
23121;SDS011;11730;51.248;22.534;2023-12-28T13:45:45;18.85;;;9.20;;
23121;SDS011;11730;51.248;22.534;2023-12-28T13:48:13;14.90;;;8.57;;
23121;SDS011;11730;51.248;22.534;2023-12-28T13:50:40;19.67;;;10.55;;
23121;SDS011;11730;51.248;22.534;2023-12-28T13:53:07;15.90;;;9.82;;
23121;SDS011;11730;51.248;22.534;2023-12-28T13:55:34;15.27;;;9.32;;
23121;SDS011;11730;51.248;22.534;2023-12-28T13:58:01;14.65;;;9.23;;
23121;SDS011;11730;51.248;22.534;2023-12-28T14:00:30;19.40;;;8.80;;
23121;SDS011;11730;51.248;22.534;2023-12-28T14:02:57;17.02;;;9.45;;
23121;SDS011;11730;51.248;22.534;2023-12-28T14:05:26;18.02;;;10.25;;
23121;SDS011;11730;51.248;22.534;2023-12-28T14:07:57;20.13;;;9.93;;
23121;SDS011;11730;51.248;22.534;2023-12-28T14:10:24;17.77;;;9.77;;
23121;SDS011;11730;51.248;22.534;2023-12-28T14:12:51;17.80;;;9.20;;
23121;SDS011;11730;51.248;22.534;2023-12-28T14:15:18;15.75;;;8.80;;
23121;SDS011;11730;51.248;22.534;2023-12-28T14:17:45;16.42;;;8.68;;
23121;SDS011;11730;51.248;22.534;2023-12-28T14:20:12;21.15;;;9.95;;
23121;SDS011;11730;51.248;22.534;2023-12-28T14:22:40;16.95;;;9.52;;
23121;SDS011;11730;51.248;22.534;2023-12-28T14:25:07;18.58;;;8.90;;
23121;SDS011;11730;51.248;22.534;2023-12-28T14:27:38;13.30;;;8.70;;
23121;SDS011;11730;51.248;22.534;2023-12-28T14:30:06;17.15;;;8.65;;